Time;durP1;ratioP1;P1;durP2;ratioP2;P2;SDS_P1;SDS_P2;PMS_P1;PMS_P2;Temp;Humidity;BMP_temperature;BMP_pressure;BME280_temperature;BME280_humidity;BME280_pressure;Samples;Min_cycle;Max_cycle;Signal;HPM_P1;HPM_P2
2021/08/03 00:01:40;;;;;;;5.87;3.70;;;;;;;15.87;67.59;99768.13;127011;1089;103030;-79
2021/08/03 00:04:41;;;;;;;5.73;4.37;;;;;;;15.87;67.49;99761.08;126769;1089;114108;-79
2021/08/03 00:07:34;;;;;;;5.43;3.80;;;;;;;15.88;67.26;99764.55;126798;1090;102958;-79
2021/08/03 00:10:23;;;;;;;5.50;4.40;;;;;;;15.88;67.32;99770.66;126772;1089;113736;-79
2021/08/03 00:13:11;;;;;;;7.27;4.53;;;;;;;15.87;67.47;99768.96;126932;1089;102999;-80
2021/08/03 00:16:08;;;;;;;4.37;3.97;;;;;;;15.86;67.21;99769.06;126668;1090;114289;-79
2021/08/03 00:18:57;;;;;;;6.80;3.83;;;;;;;15.86;67.38;99771.69;126876;1089;102296;-79
2021/08/03 00:21:46;;;;;;;5.83;4.40;;;;;;;15.83;67.42;99779.77;126716;1088;114225;-78
2021/08/03 00:24:35;;;;;;;5.07;4.20;;;;;;;15.84;67.22;99782.31;126803;1090;103057;-79
2021/08/03 00:27:23;;;;;;;5.30;4.00;;;;;;;15.83;67.35;99783.25;126754;1089;114078;-79
2021/08/03 00:30:11;;;;;;;4.40;4.00;;;;;;;15.82;67.11;99789.45;126969;1090;103155;-79
2021/08/03 00:33:00;;;;;;;6.30;3.90;;;;;;;15.85;67.25;99780.52;126801;1089;102995;-79
2021/08/03 00:35:49;;;;;;;8.27;4.23;;;;;;;15.86;67.04;99782.21;126766;1090;113688;-79
2021/08/03 00:38:37;;;;;;;5.27;4.20;;;;;;;15.84;67.16;99782.31;126935;1090;103013;-79
2021/08/03 00:41:36;;;;;;;6.33;4.27;;;;;;;15.83;66.99;99785.88;126621;1089;114229;-79
2021/08/03 00:44:51;;;;;;;5.23;4.20;;;;;;;15.83;67.11;99788.50;126941;1090;102857;-79
2021/08/03 00:47:53;;;;;;;5.37;4.70;;;;;;;15.82;67.06;99788.60;126768;1089;112671;-79
2021/08/03 00:51:01;;;;;;;7.90;4.97;;;;;;;15.83;67.06;99785.03;126883;1088;102880;-79
2021/08/03 00:54:08;;;;;;;5.20;4.50;;;;;;;15.83;66.96;99792.92;126853;1088;113865;-80
2021/08/03 00:56:56;;;;;;;;;;;;;;;15.81;67.01;99784.28;126754;1090;102847;-79
2021/08/03 00:59:45;;;;;;;6.77;4.30;;;;;;;15.79;66.75;99786.98;126738;1088;102959;-79
2021/08/03 01:02:52;;;;;;;9.13;4.30;;;;;;;15.83;66.72;99790.29;126794;1090;102909;-79
2021/08/03 01:06:13;;;;;;;5.40;3.97;;;;;;;15.81;66.76;99789.55;126760;1089;113771;-79
2021/08/03 01:09:19;;;;;;;6.23;4.60;;;;;;;15.78;66.51;99797.59;126852;1090;102857;-79
2021/08/03 01:12:38;;;;;;;7.03;4.30;;;;;;;15.74;66.55;99798.72;126847;1089;113850;-79
2021/08/03 01:15:33;;;;;;;6.67;4.20;;;;;;;15.66;66.59;99797.41;126845;1090;102852;-79
2021/08/03 01:18:49;;;;;;;7.00;4.03;;;;;;;15.58;66.81;99796.98;126707;1090;113749;-80
2021/08/03 01:21:52;;;;;;;4.73;4.30;;;;;;;15.55;66.61;99793.69;126703;1090;103242;-81
2021/08/03 01:25:20;;;;;;;4.67;4.10;;;;;;;15.54;67.05;99792.84;126511;1090;113876;-79
2021/08/03 01:28:23;;;;;;;5.00;3.80;;;;;;;15.46;67.05;99800.36;126622;1088;103099;-79
2021/08/03 01:31:21;;;;;;;8.80;4.37;;;;;;;15.43;66.79;99798.73;126634;1089;102847;-79
2021/08/03 01:34:17;;;;;;;6.05;4.50;;;;;;;15.40;67.19;99795.44;126621;1089;102957;-79
2021/08/03 01:37:09;;;;;;;6.37;4.77;;;;;;;15.35;67.07;99808.02;126471;1089;112840;-79
2021/08/03 01:40:00;;;;;;;7.10;4.60;;;;;;;15.27;67.05;99810.26;126650;1090;102989;-79
2021/08/03 01:42:51;;;;;;;6.67;4.40;;;;;;;15.19;67.35;99818.56;126621;1090;114108;-79
2021/08/03 01:45:41;;;;;;;5.50;4.20;;;;;;;15.12;67.26;99814.62;126639;1090;102982;-79
2021/08/03 01:48:31;;;;;;;6.23;3.97;;;;;;;15.05;67.22;99816.73;126505;1090;113942;-79
2021/08/03 01:51:20;;;;;;;4.83;4.30;;;;;;;15.05;67.40;99821.14;126589;1090;102967;-79
2021/08/03 01:54:10;;;;;;;4.43;4.03;;;;;;;15.00;67.39;99813.53;126628;1089;114013;-79
2021/08/03 01:57:00;;;;;;;4.87;4.07;;;;;;;14.99;67.75;99822.34;126640;1090;103102;-79
2021/08/03 01:59:52;;;;;;;6.10;3.73;;;;;;;14.95;67.61;99819.98;126711;1090;113843;-79
2021/08/03 02:02:41;;;;;;;4.67;4.20;;;;;;;14.92;67.40;99828.05;126894;1089;102280;-79
2021/08/03 02:05:31;;;;;;;5.27;4.60;;;;;;;14.90;67.65;99825.50;126587;1090;113893;-79
2021/08/03 02:08:24;;;;;;;8.90;6.97;;;;;;;14.85;67.82;99830.14;126765;1090;102879;-79
2021/08/03 02:11:27;;;;;;;5.00;4.50;;;;;;;14.83;67.75;99832.02;126786;1090;114221;-79
2021/08/03 02:14:16;;;;;;;6.20;4.30;;;;;;;14.85;67.81;99832.77;126856;1090;102895;-79
2021/08/03 02:17:28;;;;;;;5.73;4.50;;;;;;;14.83;67.49;99834.64;126646;1089;113887;-79
2021/08/03 02:20:24;;;;;;;5.27;4.57;;;;;;;14.78;67.83;99834.91;126857;1088;102865;-79
2021/08/03 02:23:15;;;;;;;5.38;4.50;;;;;;;14.77;68.03;99837.63;126799;1090;113942;-79
2021/08/03 02:26:11;;;;;;;7.57;4.30;;;;;;;14.75;67.88;99839.48;126913;1089;103020;-79
2021/08/03 02:28:59;;;;;;;5.10;4.20;;;;;;;14.75;67.97;99834.23;126742;1090;114076;-79
2021/08/03 02:32:11;;;;;;;5.67;4.17;;;;;;;14.73;67.94;99836.11;126913;1089;102893;-79
2021/08/03 02:35:19;;;;;;;7.23;4.83;;;;;;;14.71;67.71;99843.19;126488;1090;114128;-79
2021/08/03 02:38:12;;;;;;;5.00;4.20;;;;;;;14.70;67.92;99839.72;126565;1090;103032;-79
2021/08/03 02:41:02;;;;;;;5.13;4.03;;;;;;;14.66;67.84;99840.83;126513;1088;114284;-78
2021/08/03 02:43:57;;;;;;;8.90;4.10;;;;;;;14.67;67.98;99841.67;126610;1090;102877;-79
2021/08/03 02:46:50;;;;;;;5.23;4.57;;;;;;;14.65;67.72;99844.39;126603;1090;103007;-79
2021/08/03 02:49:48;;;;;;;6.83;4.77;;;;;;;14.64;67.82;99840.06;126567;1090;102827;-78
2021/08/03 02:52:39;;;;;;;6.97;4.83;;;;;;;14.59;67.66;99844.73;126612;1090;102903;-79
2021/08/03 02:55:39;;;;;;;6.97;4.53;;;;;;;14.57;67.88;99841.34;126496;1090;114120;-79
2021/08/03 02:58:42;;;;;;;7.23;3.87;;;;;;;14.56;67.52;99844.06;126632;1089;101758;-79
2021/08/03 03:01:37;;;;;;;5.53;4.30;;;;;;;14.51;67.76;99846.91;126573;1090;113519;-79
2021/08/03 03:04:33;;;;;;;6.30;4.33;;;;;;;14.47;67.58;99851.48;126574;1090;102942;-79
2021/08/03 03:07:49;;;;;;;5.77;4.30;;;;;;;14.45;67.65;99853.35;126550;1090;113817;-79
2021/08/03 03:10:43;;;;;;;7.10;4.30;;;;;;;14.44;67.78;99856.91;126699;1090;103012;-79
2021/08/03 03:13:47;;;;;;;5.80;4.20;;;;;;;14.47;67.69;99856.73;126826;1089;113895;-79
2021/08/03 03:16:40;;;;;;;7.27;4.87;;;;;;;14.49;67.75;99854.88;126868;1090;102896;-79
2021/08/03 03:19:33;;;;;;;8.23;5.23;;;;;;;14.51;67.75;99867.91;126670;1088;113863;-79
2021/08/03 03:22:26;;;;;;;8.73;4.47;;;;;;;14.51;67.73;99870.53;126726;1089;102872;-78
2021/08/03 03:25:24;;;;;;;6.70;4.20;;;;;;;14.48;67.85;99866.30;126706;1089;113718;-78
2021/08/03 03:28:13;;;;;;;5.50;3.98;;;;;;;14.46;67.47;99875.19;126745;1089;103531;-79
2021/08/03 03:31:03;;;;;;;6.43;4.60;;;;;;;14.43;67.70;99872.70;126755;1088;113898;-80
2021/08/03 03:33:55;;;;;;;5.83;4.57;;;;;;;14.42;67.67;99871.86;126826;1089;102852;-79
2021/08/03 03:36:47;;;;;;;7.20;4.70;;;;;;;14.44;67.63;99877.05;126746;1090;113787;-79
2021/08/03 03:39:39;;;;;;;7.03;4.43;;;;;;;14.45;67.50;99879.59;126847;1090;102750;-79
2021/08/03 03:42:35;;;;;;;4.67;4.13;;;;;;;14.44;67.72;99877.90;126781;1089;114058;-79
2021/08/03 03:45:24;;;;;;;6.17;4.17;;;;;;;14.44;67.58;99888.39;126727;1089;102976;-80
2021/08/03 03:48:20;;;;;;;5.50;4.10;;;;;;;14.46;67.60;99891.78;126790;1089;112648;-80
2021/08/03 03:51:15;;;;;;;5.00;3.80;;;;;;;14.46;67.48;99878.66;126732;1089;102889;-79
2021/08/03 03:54:11;;;;;;;7.90;4.57;;;;;;;14.48;67.58;99883.82;126738;1088;113915;-79
2021/08/03 03:57:04;;;;;;;5.77;4.20;;;;;;;14.49;67.47;99883.73;126764;1090;102874;-79
2021/08/03 03:59:58;;;;;;;5.43;3.57;;;;;;;14.49;67.06;99888.98;126738;1090;113911;-79
2021/08/03 04:02:50;;;;;;;4.90;4.10;;;;;;;14.48;67.34;99884.67;126848;1089;102725;-79
2021/08/03 04:05:43;;;;;;;4.77;3.67;;;;;;;14.51;67.06;99892.37;126741;1090;114022;-79
2021/08/03 04:08:31;;;;;;;5.80;4.40;;;;;;;14.53;67.00;99901.94;126671;1088;102849;-79
2021/08/03 04:11:20;;;;;;;7.23;4.60;;;;;;;14.56;67.03;99907.05;126690;1088;114054;-79
2021/08/03 04:14:23;;;;;;;5.23;4.00;;;;;;;14.55;67.10;99905.36;126853;1090;102882;-80
2021/08/03 04:17:13;;;;;;;9.07;4.20;;;;;;;14.57;66.89;99898.24;126934;1088;102891;-80
2021/08/03 04:20:04;;;;;;;5.23;4.33;;;;;;;14.60;66.99;99905.94;126985;1089;102887;-80
2021/08/03 04:22:52;;;;;;;5.63;4.33;;;;;;;14.63;66.75;99908.40;126834;1088;102868;-80
2021/08/03 04:25:42;;;;;;;7.00;4.17;;;;;;;14.64;66.76;99905.69;126883;1090;113099;-79
2021/08/03 04:28:30;;;;;;;6.33;4.53;;;;;;;14.70;66.42;99905.34;126781;1089;102958;-80
2021/08/03 04:31:18;;;;;;;5.13;3.57;;;;;;;14.76;66.38;99904.18;126652;1089;112873;-79
2021/08/03 04:34:05;;;;;;;5.13;3.70;;;;;;;14.85;66.18;99908.06;126824;1089;102916;-79
2021/08/03 04:36:53;;;;;;;5.07;3.33;;;;;;;14.92;66.12;99902.41;126780;1089;113805;-80
2021/08/03 04:39:40;;;;;;;;;;;;;;;15.01;65.73;99912.39;126907;1090;102845;-79
2021/08/03 04:42:28;;;;;;;6.40;3.50;;;;;;;15.10;65.94;99916.30;126930;1089;102956;-80
2021/08/03 04:45:16;;;;;;;7.57;4.03;;;;;;;15.20;65.68;99914.83;126758;1090;102888;-80
2021/08/03 04:48:06;;;;;;;5.47;3.87;;;;;;;15.32;65.50;99922.03;126655;1089;112870;-79
2021/08/03 04:50:53;;;;;;;4.97;3.80;;;;;;;15.39;64.99;99919.89;126971;1088;102876;-80
2021/08/03 04:53:41;;;;;;;4.95;3.30;;;;;;;15.48;64.79;99924.63;126820;1090;112834;-80
2021/08/03 04:56:29;;;;;;;6.20;3.33;;;;;;;15.63;64.79;99922.94;126900;1090;102873;-80
2021/08/03 04:59:17;;;;;;;7.23;3.20;;;;;;;15.82;64.48;99917.45;126821;1090;103021;-80
2021/08/03 05:02:04;;;;;;;4.73;3.33;;;;;;;16.05;64.26;99916.92;126756;1089;114168;-80
2021/08/03 05:04:52;;;;;;;5.70;3.77;;;;;;;16.21;63.74;99920.33;126884;1089;102843;-79
2021/08/03 05:07:53;;;;;;;6.33;3.20;;;;;;;16.43;63.18;99919.86;126814;1089;113822;-79
2021/08/03 05:10:41;;;;;;;5.87;3.23;;;;;;;16.66;62.95;99926.33;126999;1089;102633;-80
2021/08/03 05:13:29;;;;;;;3.50;3.20;;;;;;;16.94;62.40;99929.91;126602;1089;113751;-80
2021/08/03 05:16:17;;;;;;;3.83;2.93;;;;;;;17.37;62.36;99934.09;126837;1090;102942;-79
2021/08/03 05:19:05;;;;;;;6.23;2.90;;;;;;;19.28;61.82;99942.08;126700;1090;113925;-79
2021/08/03 05:21:54;;;;;;;4.97;3.00;;;;;;;21.92;58.16;99931.94;126844;1089;101946;-79
2021/08/03 05:24:42;;;;;;;5.00;2.50;;;;;;;24.25;53.76;99934.23;126742;1089;114042;-79
2021/08/03 05:27:30;;;;;;;2.60;2.07;;;;;;;26.22;49.88;99926.39;126769;1090;102654;-80
2021/08/03 05:30:19;;;;;;;4.17;2.50;;;;;;;28.13;46.99;99922.91;126879;1090;114153;-80
2021/08/03 05:33:06;;;;;;;3.40;2.53;;;;;;;29.86;44.55;99914.72;126897;1088;102874;-80
2021/08/03 05:35:54;;;;;;;5.57;2.30;;;;;;;31.16;41.76;99913.26;126810;1089;113892;-80
2021/08/03 05:38:41;;;;;;;3.57;2.00;;;;;;;32.38;39.08;99916.69;127002;1088;102849;-80
2021/08/03 05:41:29;;;;;;;3.43;2.00;;;;;;;33.55;37.50;99913.81;126981;1090;102898;-80
2021/08/03 05:44:17;;;;;;;2.60;1.77;;;;;;;34.44;34.62;99920.69;126842;1087;113870;-80
2021/08/03 05:47:08;;;;;;;3.17;1.97;;;;;;;35.28;33.87;99919.74;126968;1090;102939;-81
2021/08/03 05:49:56;;;;;;;2.57;1.67;;;;;;;36.06;32.06;99922.95;126747;1090;114077;-81
2021/08/03 05:52:44;;;;;;;3.13;1.77;;;;;;;36.58;30.61;99927.03;126955;1088;102839;-80
2021/08/03 05:55:31;;;;;;;2.90;1.60;;;;;;;37.03;29.26;99931.34;126573;1089;113845;-80
2021/08/03 05:58:19;;;;;;;4.30;1.80;;;;;;;37.53;28.72;99926.47;126938;1089;102667;-80
2021/08/03 06:01:06;;;;;;;2.97;1.83;;;;;;;37.93;27.62;99932.12;126802;1090;114545;-81
2021/08/03 06:03:54;;;;;;;3.60;1.63;;;;;;;38.58;27.08;99931.14;126874;1090;100601;-81
2021/08/03 06:06:43;;;;;;;4.73;1.60;;;;;;;39.07;26.17;99937.08;126796;1089;114765;-79
2021/08/03 06:09:35;;;;;;;6.90;1.55;;;;;;;39.64;24.80;99929.73;126881;1090;102877;-81
2021/08/03 06:12:26;;;;;;;4.00;1.90;;;;;;;39.97;25.01;99928.93;126807;1087;113902;-81
2021/08/03 06:15:15;;;;;;;3.87;1.43;;;;;;;40.41;24.10;99929.06;126884;1088;102903;-81
2021/08/03 06:18:08;;;;;;;5.20;1.67;;;;;;;40.97;23.85;99938.82;126674;1090;113901;-81
2021/08/03 06:20:57;;;;;;;2.27;1.47;;;;;;;41.54;23.05;99929.30;126885;1090;102884;-79
2021/08/03 06:23:46;;;;;;;2.67;1.17;;;;;;;41.99;21.92;99931.58;126901;1090;103018;-79
2021/08/03 06:26:34;;;;;;;4.37;1.50;;;;;;;42.16;21.67;99939.67;126687;1088;112670;-79
2021/08/03 06:29:25;;;;;;;3.47;1.50;;;;;;;42.36;21.35;99945.27;126809;1090;102847;-79
2021/08/03 06:32:14;;;;;;;5.17;1.60;;;;;;;42.30;20.72;99940.86;126800;1090;113814;-79
2021/08/03 06:35:03;;;;;;;4.13;1.60;;;;;;;42.19;20.02;99941.88;126948;1089;102924;-79
2021/08/03 06:37:52;;;;;;;3.60;1.90;;;;;;;42.39;20.56;99944.77;126610;1088;113958;-79
2021/08/03 06:40:46;;;;;;;3.10;1.30;;;;;;;42.48;20.02;99940.44;126896;1090;103065;-80
2021/08/03 06:43:38;;;;;;;2.43;1.30;;;;;;;42.42;19.72;99938.75;126693;1090;113765;-81
2021/08/03 06:46:28;;;;;;;2.90;1.57;;;;;;;42.43;19.75;99945.88;126825;1089;103393;-80
2021/08/03 06:49:18;;;;;;;2.97;1.40;;;;;;;42.58;19.11;99941.59;126816;1089;113925;-80
2021/08/03 06:52:08;;;;;;;2.83;1.07;;;;;;;42.56;18.83;99944.61;126762;1089;102645;-80
2021/08/03 06:55:03;;;;;;;2.37;1.20;;;;;;;42.83;18.70;99944.44;126858;1090;113953;-80
2021/08/03 06:57:54;;;;;;;2.03;1.10;;;;;;;42.85;18.07;99934.02;126871;1089;103019;-80
2021/08/03 07:00:45;;;;;;;3.33;1.40;;;;;;;43.06;18.88;99935.75;126852;1089;114048;-80
2021/08/03 07:03:43;;;;;;;1.70;1.20;;;;;;;43.45;17.91;99934.46;126933;1090;102877;-80
2021/08/03 07:06:36;;;;;;;2.40;1.20;;;;;;;43.63;17.68;99937.52;126700;1090;113923;-80
2021/08/03 07:09:29;;;;;;;2.50;1.10;;;;;;;43.64;17.32;99939.17;126884;1090;102899;-80
2021/08/03 07:12:17;;;;;;;2.33;1.43;;;;;;;43.40;17.36;99943.53;126885;1090;114147;-80
2021/08/03 07:15:06;;;;;;;2.13;1.00;;;;;;;43.60;17.18;99932.55;126901;1089;102846;-80
2021/08/03 07:17:54;;;;;;;2.47;1.10;;;;;;;43.68;16.98;99944.93;126925;1089;102955;-80
2021/08/03 07:20:42;;;;;;;2.50;0.90;;;;;;;43.85;16.89;99944.69;126672;1090;113621;-80
2021/08/03 07:23:32;;;;;;;2.07;1.20;;;;;;;43.69;16.41;99941.11;126952;1089;102881;-80
2021/08/03 07:26:19;;;;;;;3.00;1.10;;;;;;;43.49;16.25;99941.91;126701;1089;114115;-80
2021/08/03 07:29:07;;;;;;;2.07;1.13;;;;;;;43.25;16.36;99946.22;126941;1090;103399;-80
2021/08/03 07:31:54;;;;;;;2.80;0.80;;;;;;;43.23;16.53;99946.48;126794;1090;113803;-80
2021/08/03 07:34:43;;;;;;;2.60;1.00;;;;;;;43.13;16.33;99947.31;126878;1088;103007;-80
2021/08/03 07:37:31;;;;;;;1.37;0.80;;;;;;;43.15;16.24;99948.95;126712;1090;113904;-80
2021/08/03 07:40:18;;;;;;;2.05;1.15;;;;;;;42.95;16.07;99947.80;126960;1089;102847;-80
2021/08/03 07:43:06;;;;;;;2.50;1.10;;;;;;;42.70;16.52;99948.48;126838;1090;113763;-79
2021/08/03 07:45:55;;;;;;;1.70;0.93;;;;;;;42.67;16.40;99948.20;126880;1089;102889;-80
2021/08/03 07:48:44;;;;;;;2.40;1.00;;;;;;;42.81;16.59;99946.63;126707;1090;114121;-80
2021/08/03 07:51:34;;;;;;;2.40;1.37;;;;;;;42.79;16.23;99948.81;126819;1089;102830;-80
2021/08/03 07:54:21;;;;;;;1.33;1.00;;;;;;;42.73;16.08;99942.49;126834;1090;113870;-80
2021/08/03 07:57:09;;;;;;;1.30;1.00;;;;;;;42.57;16.26;99950.92;126907;1089;102884;-80
2021/08/03 07:59:57;;;;;;;1.33;0.97;;;;;;;42.72;16.08;99950.96;126892;1089;102934;-80
2021/08/03 08:02:44;;;;;;;1.67;1.10;;;;;;;42.51;16.17;99931.68;126815;1090;113631;-81
2021/08/03 08:05:33;;;;;;;3.43;1.10;;;;;;;42.38;16.24;99948.60;126941;1090;102940;-80
2021/08/03 08:08:24;;;;;;;1.57;1.07;;;;;;;42.09;15.84;99944.57;126781;1090;114653;-80
2021/08/03 08:11:12;;;;;;;1.70;0.80;;;;;;;42.14;15.73;99947.34;126943;1090;102891;-80
2021/08/03 08:13:59;;;;;;;2.03;1.10;;;;;;;41.91;16.14;99954.83;126804;1089;113943;-80
2021/08/03 08:16:47;;;;;;;1.90;1.20;;;;;;;41.80;16.17;99946.78;126869;1089;104188;-80
2021/08/03 08:19:35;;;;;;;1.77;1.00;;;;;;;41.74;16.40;99945.92;126873;1089;113976;-80
2021/08/03 08:22:23;;;;;;;2.30;1.40;;;;;;;41.72;16.47;99944.53;126964;1090;102852;-80
2021/08/03 08:25:11;;;;;;;1.53;1.07;;;;;;;41.53;16.85;99946.81;126834;1089;112734;-80
2021/08/03 08:27:59;;;;;;;1.53;1.10;;;;;;;41.70;16.52;99941.23;126891;1088;102846;-80
2021/08/03 08:30:47;;;;;;;2.27;1.50;;;;;;;41.43;16.61;99947.52;126701;1089;114077;-80
2021/08/03 08:33:35;;;;;;;3.07;1.03;;;;;;;40.84;16.72;99947.41;126969;1089;102648;-80
2021/08/03 08:36:22;;;;;;;1.80;1.10;;;;;;;40.98;16.57;99948.67;126799;1089;114090;-80
2021/08/03 08:39:10;;;;;;;1.40;1.00;;;;;;;40.54;15.80;99945.08;126968;1090;102994;-80
2021/08/03 08:41:58;;;;;;;3.73;1.20;;;;;;;39.27;16.67;99941.05;126787;1089;103130;-80
2021/08/03 08:44:49;;;;;;;1.50;1.00;;;;;;;38.02;17.62;99936.13;126787;1088;113712;-80
2021/08/03 08:47:41;;;;;;;1.27;0.97;;;;;;;36.78;18.68;99953.14;126951;1090;102937;-80
2021/08/03 08:50:29;;;;;;;1.30;1.00;;;;;;;36.21;18.71;99956.02;126829;1090;113958;-80
2021/08/03 08:53:17;;;;;;;2.37;1.13;;;;;;;36.34;19.16;99952.38;126778;1089;102950;-79
2021/08/03 08:56:05;;;;;;;1.80;1.17;;;;;;;36.27;19.19;99946.16;126787;1090;113818;-80
2021/08/03 08:58:54;;;;;;;3.90;1.20;;;;;;;36.55;19.64;99942.96;126750;1089;102991;-80
2021/08/03 09:01:42;;;;;;;2.87;1.17;;;;;;;36.62;19.18;99949.14;126836;1089;113060;-80
2021/08/03 09:04:30;;;;;;;2.83;1.20;;;;;;;36.88;19.75;99953.48;126979;1090;100874;-80
2021/08/03 09:07:18;;;;;;;2.00;1.07;;;;;;;37.01;19.28;99947.05;126873;1089;113933;-80
2021/08/03 09:10:06;;;;;;;1.77;1.13;;;;;;;37.07;18.86;99946.13;126970;1089;102952;-80
2021/08/03 09:13:05;;;;;;;2.70;0.98;;;;;;;37.05;18.54;99943.64;126783;1089;113906;-80
2021/08/03 09:15:59;;;;;;;1.63;1.20;;;;;;;35.83;19.18;99945.25;126972;1089;102923;-80
2021/08/03 09:18:48;;;;;;;2.80;1.30;;;;;;;34.46;20.10;99946.50;126777;1089;113938;-80
2021/08/03 09:21:36;;;;;;;1.77;0.97;;;;;;;34.14;20.99;99945.51;126941;1090;102949;-80
2021/08/03 09:24:24;;;;;;;2.03;1.00;;;;;;;34.48;20.79;99946.33;126850;1088;102878;-80
2021/08/03 09:27:39;;;;;;;2.10;1.50;;;;;;;34.93;20.68;99938.27;126756;1090;103032;-80
2021/08/03 09:30:34;;;;;;;2.77;1.20;;;;;;;35.20;20.12;99941.70;126974;1089;103023;-80
2021/08/03 09:33:26;;;;;;;5.13;1.30;;;;;;;35.37;20.00;99932.88;126699;1090;113781;-81
2021/08/03 09:36:14;;;;;;;2.30;1.00;;;;;;;34.83;19.82;99944.10;126967;1089;102847;-80
2021/08/03 09:39:02;;;;;;;3.27;1.00;;;;;;;34.89;20.01;99937.88;126719;1089;114066;-80
2021/08/03 09:41:52;;;;;;;1.73;1.13;;;;;;;34.89;20.17;99950.59;126810;1089;102920;-80
2021/08/03 09:44:48;;;;;;;2.17;1.00;;;;;;;35.22;18.95;99942.31;126914;1089;113793;-80
2021/08/03 09:47:37;;;;;;;1.43;1.00;;;;;;;34.70;19.93;99944.17;126949;1090;102943;-80
2021/08/03 09:50:25;;;;;;;2.73;1.10;;;;;;;34.89;19.94;99942.47;126868;1089;112696;-80
2021/08/03 09:53:14;;;;;;;1.10;1.00;;;;;;;35.16;19.44;99941.28;126918;1090;102878;-80
2021/08/03 09:56:01;;;;;;;1.93;0.90;;;;;;;35.17;19.56;99940.23;126829;1090;113984;-82
2021/08/03 09:58:55;;;;;;;1.60;1.00;;;;;;;34.90;18.26;99965.80;126793;1089;102877;-80
2021/08/03 10:01:44;;;;;;;3.27;1.23;;;;;;;34.41;19.94;99945.48;126703;1088;112736;-79
2021/08/03 10:04:33;;;;;;;1.63;1.00;;;;;;;34.56;19.12;99943.38;126959;1090;102892;-79
2021/08/03 10:07:22;;;;;;;1.67;1.00;;;;;;;34.71;18.72;99943.13;126875;1088;114061;-79
2021/08/03 10:10:10;;;;;;;4.00;1.10;;;;;;;34.57;18.94;99945.03;126911;1089;102785;-79
2021/08/03 10:12:58;;;;;;;2.37;1.37;;;;;;;34.64;19.21;99945.00;126961;1088;102827;-79
2021/08/03 10:15:47;;;;;;;3.50;1.10;;;;;;;34.14;19.52;99945.51;126919;1090;102670;-79
2021/08/03 10:18:39;;;;;;;2.70;1.20;;;;;;;34.08;19.93;99951.73;126905;1090;103314;-79
2021/08/03 10:21:48;;;;;;;2.63;1.40;;;;;;;33.87;19.46;99943.84;126619;1088;114677;-79
2021/08/03 10:24:41;;;;;;;1.77;1.10;;;;;;;33.58;19.58;99948.59;126759;1089;103501;-79
2021/08/03 10:27:40;;;;;;;3.43;1.00;;;;;;;33.44;19.32;99959.58;126775;1089;114248;-79
2021/08/03 10:30:29;;;;;;;1.77;1.10;;;;;;;32.84;20.20;99951.21;126731;1089;102957;-79
2021/08/03 10:33:40;;;;;;;1.83;1.10;;;;;;;32.76;20.73;99968.39;126738;1090;113715;-79
2021/08/03 10:36:37;;;;;;;4.43;1.10;;;;;;;32.77;20.29;99950.33;126909;1089;104069;-79
2021/08/03 10:39:25;;;;;;;3.27;1.13;;;;;;;32.14;20.32;99952.20;126802;1088;113917;-79
2021/08/03 10:42:14;;;;;;;2.63;1.20;;;;;;;31.28;20.90;99945.13;126874;1090;102845;-80
2021/08/03 10:45:19;;;;;;;2.13;1.10;;;;;;;30.50;21.70;99952.77;126658;1090;113944;-79
2021/08/03 10:48:06;;;;;;;2.00;1.10;;;;;;;30.12;22.07;99953.83;126961;1089;104725;-79
2021/08/03 10:50:55;;;;;;;1.77;1.27;;;;;;;29.80;22.89;99939.63;126633;1090;114225;-79
2021/08/03 10:54:08;;;;;;;2.67;1.47;;;;;;;29.42;22.88;99947.59;126796;1089;102942;-79
2021/08/03 10:56:56;;;;;;;3.13;1.43;;;;;;;29.44;23.08;99939.36;126718;1090;114063;-80
2021/08/03 10:59:47;;;;;;;2.90;1.27;;;;;;;29.24;23.95;99957.78;127010;1089;102856;-79
2021/08/03 11:02:38;;;;;;;2.27;1.40;;;;;;;29.15;23.80;99950.80;126890;1090;113825;-80
2021/08/03 11:05:29;;;;;;;2.57;1.40;;;;;;;29.04;23.89;99954.70;127017;1090;102887;-80
2021/08/03 11:08:39;;;;;;;1.50;1.07;;;;;;;28.84;24.49;99946.21;126795;1090;112626;-79
2021/08/03 11:11:30;;;;;;;2.00;1.30;;;;;;;28.81;24.32;99953.78;127007;1090;102847;-80
2021/08/03 11:14:28;;;;;;;2.30;1.83;;;;;;;28.81;24.63;99951.09;126849;1090;113935;-79
2021/08/03 11:17:49;;;;;;;2.40;1.20;;;;;;;28.48;25.19;99950.36;126926;1089;102926;-79
2021/08/03 11:21:04;;;;;;;3.07;1.23;;;;;;;28.50;24.28;99961.75;126884;1088;114101;-79
2021/08/03 11:24:42;;;;;;;2.53;1.20;;;;;;;28.13;25.01;99955.08;126634;1091;102646;-79
2021/08/03 11:27:30;;;;;;;3.37;1.70;;;;;;;28.04;25.43;99950.75;126500;1090;113972;-79
2021/08/03 11:30:19;;;;;;;2.60;1.90;;;;;;;28.26;25.61;99947.39;126611;1090;103032;-79
2021/08/03 11:33:08;;;;;;;2.77;1.53;;;;;;;27.87;25.15;99943.72;126468;1093;112798;-79
2021/08/03 11:36:08;;;;;;;2.70;1.40;;;;;;;27.47;25.54;99942.67;126555;1090;102871;-79
2021/08/03 11:39:26;;;;;;;2.50;1.40;;;;;;;27.38;26.25;99939.13;126470;1092;113258;-79
2021/08/03 11:42:15;;;;;;;2.30;1.17;;;;;;;27.36;26.34;99932.27;126578;1090;102866;-79
2021/08/03 11:45:08;;;;;;;2.03;1.37;;;;;;;27.22;26.89;99932.89;126270;1092;114180;-79
2021/08/03 11:47:59;;;;;;;2.40;1.57;;;;;;;27.14;26.98;99925.70;126560;1093;102272;-79
2021/08/03 11:50:47;;;;;;;2.47;1.40;;;;;;;27.10;27.23;99925.16;126510;1092;114103;-79
2021/08/03 11:53:34;;;;;;;2.97;1.70;;;;;;;27.20;27.16;99924.19;126501;1093;103153;-79
2021/08/03 11:56:29;;;;;;;1.80;1.37;;;;;;;27.30;27.10;99924.89;126474;1092;114006;-79
2021/08/03 11:59:29;;;;;;;3.63;1.77;;;;;;;27.25;27.20;99924.53;126565;1093;103175;-79
2021/08/03 12:02:20;;;;;;;2.05;1.35;;;;;;;27.16;27.79;99925.53;126631;1089;113982;-79
2021/08/03 12:05:30;;;;;;;4.50;1.60;;;;;;;27.05;27.94;99916.79;126823;1089;101944;-79
2021/08/03 12:08:18;;;;;;;3.00;1.77;;;;;;;26.93;27.92;99939.48;126711;1088;113785;-79
2021/08/03 12:11:06;;;;;;;5.40;1.47;;;;;;;26.91;28.69;99937.95;126775;1089;100943;-79
2021/08/03 12:13:54;;;;;;;2.13;1.40;;;;;;;26.90;28.68;99923.73;126836;1090;113865;-79
2021/08/03 12:16:43;;;;;;;3.27;1.63;;;;;;;26.63;28.86;99922.13;126785;1090;102840;-79
2021/08/03 12:19:37;;;;;;;1.80;1.43;;;;;;;26.50;29.58;99921.72;126804;1089;114084;-80
2021/08/03 12:22:28;;;;;;;3.10;1.45;;;;;;;26.39;29.24;99925.53;126754;1090;103000;-80
2021/08/03 12:25:17;;;;;;;2.50;1.30;;;;;;;26.23;29.99;99920.05;126927;1089;102867;-79
2021/08/03 12:28:05;;;;;;;3.20;1.60;;;;;;;26.33;30.33;99925.27;126844;1090;113825;-79
2021/08/03 12:30:53;;;;;;;6.57;1.63;;;;;;;26.17;30.26;99915.31;126707;1089;102955;-79
2021/08/03 12:33:41;;;;;;;1.77;1.60;;;;;;;25.90;30.25;99909.13;126632;1090;113996;-79
2021/08/03 12:36:40;;;;;;;4.23;1.50;;;;;;;25.64;30.82;99908.20;126795;1089;103009;-79
2021/08/03 12:39:39;;;;;;;1.67;1.37;;;;;;;25.61;31.37;99905.84;126802;1090;113863;-80
2021/08/03 12:45:15;;;;;;;1.60;1.30;;;;;;;26.03;30.63;99910.53;126921;1089;114029;-80
2021/08/03 12:48:06;;;;;;;1.90;1.30;;;;;;;26.05;29.71;99901.39;126838;1089;102891;-80
2021/08/03 12:50:55;;;;;;;5.07;1.37;;;;;;;26.01;29.66;99904.51;126800;1090;113996;-80
2021/08/03 12:53:44;;;;;;;2.43;1.43;;;;;;;26.06;29.57;99894.21;126916;1088;102657;-80
2021/08/03 12:56:46;;;;;;;2.07;1.30;;;;;;;26.13;30.25;99895.24;126853;1089;112945;-81
2021/08/03 12:59:43;;;;;;;1.60;1.40;;;;;;;26.38;30.50;99890.90;126878;1090;102881;-81
2021/08/03 13:02:31;;;;;;;2.33;1.57;;;;;;;26.57;30.14;99885.33;126840;1089;114105;-81
2021/08/03 13:05:18;;;;;;;4.03;1.60;;;;;;;26.76;29.59;99884.23;126905;1088;102856;-80
2021/08/03 13:08:07;;;;;;;3.43;1.53;;;;;;;26.96;29.78;99882.95;126628;1090;113936;-80
2021/08/03 13:10:55;;;;;;;2.33;1.60;;;;;;;27.02;29.17;99889.52;126864;1089;103469;-80
2021/08/03 13:13:43;;;;;;;4.77;1.50;;;;;;;27.04;28.43;99887.52;126851;1090;102843;-80
2021/08/03 13:16:31;;;;;;;5.00;1.40;;;;;;;26.91;28.17;99879.91;126877;1089;102863;-80